Corpus Christi International Airport
KCRP : now visible

Airfield :











YOU CAN JOIN US ON...

 
LOGIN :

Register | Disclaimer

   EN    FR    IT 

 









Legend :    VFR   Marginal VFR   IFR   Intensive IFR   Very Intensive IFR
Visi :
Ceiling :
>= 8 km
>= 3000ft
5 to 8 km
1000 to 3000 ft
1500m to 5 km
500 to 1000 ft
800 to 1500m
200 to 500 ft
< 800m
< 200 ft
Symbols :   Thunderstorms  Fog  Heavy snow  Heavy precipitations  Wind > 20 kt






- Airport Elevation : 44 ft
- IATA code : CRP


KCRP - Corpus Christi International

CURRENT METAR :
  • 042151Z 12009KT 10SM FEW030 FEW040 FEW160 SCT250 32/23 A2996 RMK AO2 SLP145 T03220228

EXPIRED METARs :
  • 042051Z 11008KT 10SM FEW031 FEW042 FEW160 SCT250 33/23 A2998 RMK AO2 SLP150 T03280233 58017
  • 041951Z 08009KT 10SM FEW034 FEW045 FEW160 SCT250 33/24 A3000 RMK AO2 SLP157 T03330239 $

TAF KCRP
Valid from the 04 at 18:00 until the 05 at 18:00 UTC


041739Z 0418/0518 VRB03KT P6SM SCT035
FM042000 13014KT P6SM SCT040
FM050600 18004KT P6SM SCT015
TEMPO 0510/0512 5SM BR
FM051300 VRB03KT P6SM BKN020
FM051600 16005KT P6SM SCT030
KZHU FIR / North America



MET'MAP, your aeronautical weather chart ! - Copyright ORBIFLY December 2007 - Disclaimer

ORBIFLY MET'MAP TEAM :

Programming & Development : Alexandra Zaïnal
Concept & original design : Baudouin d'Aumeries
Assistance for programming : Marc-Olivier Méhu
Technical & hardware support : Manuel Goepfert

Contact : metmap@orbifly.com




SOURCES & CREDITS :

   NOAA       Earth
Advisory